sensor_id;sensor_type;location;lat;lon;timestamp;P1;durP1;ratioP1;P2;durP2;ratioP2
73869;SDS011;64924;42.140;24.762;2023-03-31T00:00:51;9.63;;;4.20;;
73869;SDS011;64924;42.140;24.762;2023-03-31T00:03:17;8.75;;;4.93;;
73869;SDS011;64924;42.140;24.762;2023-03-31T00:05:45;10.13;;;4.55;;
73869;SDS011;64924;42.140;24.762;2023-03-31T00:08:19;8.02;;;3.95;;
73869;SDS011;64924;42.140;24.762;2023-03-31T00:10:45;7.60;;;4.53;;
73869;SDS011;64924;42.140;24.762;2023-03-31T00:13:12;9.38;;;4.57;;
73869;SDS011;64924;42.140;24.762;2023-03-31T00:15:38;9.13;;;4.38;;
73869;SDS011;64924;42.140;24.762;2023-03-31T00:18:04;6.88;;;4.15;;
73869;SDS011;64924;42.140;24.762;2023-03-31T00:20:30;8.90;;;5.05;;
73869;SDS011;64924;42.140;24.762;2023-03-31T00:23:02;7.15;;;4.00;;
73869;SDS011;64924;42.140;24.762;2023-03-31T00:25:27;5.88;;;3.58;;
73869;SDS011;64924;42.140;24.762;2023-03-31T00:27:53;8.82;;;4.75;;
73869;SDS011;64924;42.140;24.762;2023-03-31T00:30:18;6.63;;;4.00;;
73869;SDS011;64924;42.140;24.762;2023-03-31T00:32:44;8.80;;;4.72;;
73869;SDS011;64924;42.140;24.762;2023-03-31T00:35:10;9.32;;;4.68;;
73869;SDS011;64924;42.140;24.762;2023-03-31T00:37:36;8.73;;;4.07;;
73869;SDS011;64924;42.140;24.762;2023-03-31T00:40:02;10.93;;;4.22;;
73869;SDS011;64924;42.140;24.762;2023-03-31T00:42:38;6.88;;;4.43;;
73869;SDS011;64924;42.140;24.762;2023-03-31T00:47:49;7.18;;;3.97;;
73869;SDS011;64924;42.140;24.762;2023-03-31T00:50:34;7.50;;;4.05;;
73869;SDS011;64924;42.140;24.762;2023-03-31T00:53:06;7.18;;;4.80;;
73869;SDS011;64924;42.140;24.762;2023-03-31T00:55:37;9.68;;;4.55;;
73869;SDS011;64924;42.140;24.762;2023-03-31T00:58:07;6.00;;;3.70;;
73869;SDS011;64924;42.140;24.762;2023-03-31T01:00:38;9.88;;;3.97;;
73869;SDS011;64924;42.140;24.762;2023-03-31T01:03:05;8.68;;;4.18;;
73869;SDS011;64924;42.140;24.762;2023-03-31T01:05:46;9.93;;;4.80;;
73869;SDS011;64924;42.140;24.762;2023-03-31T01:08:15;8.65;;;4.30;;
73869;SDS011;64924;42.140;24.762;2023-03-31T01:10:44;7.32;;;4.22;;
73869;SDS011;64924;42.140;24.762;2023-03-31T01:13:14;8.73;;;3.92;;
73869;SDS011;64924;42.140;24.762;2023-03-31T01:15:42;7.20;;;3.78;;
73869;SDS011;64924;42.140;24.762;2023-03-31T01:18:08;6.40;;;3.50;;
73869;SDS011;64924;42.140;24.762;2023-03-31T01:35:00;8.85;;;4.32;;
73869;SDS011;64924;42.140;24.762;2023-03-31T01:40:25;8.68;;;4.32;;
73869;SDS011;64924;42.140;24.762;2023-03-31T01:43:45;8.35;;;4.13;;
73869;SDS011;64924;42.140;24.762;2023-03-31T01:51:27;9.63;;;4.50;;
73869;SDS011;64924;42.140;24.762;2023-03-31T01:54:05;8.90;;;4.32;;
73869;SDS011;64924;42.140;24.762;2023-03-31T01:59:01;13.23;;;5.35;;
73869;SDS011;64924;42.140;24.762;2023-03-31T02:01:36;13.00;;;5.85;;
73869;SDS011;64924;42.140;24.762;2023-03-31T02:04:12;16.00;;;6.10;;
73869;SDS011;64924;42.140;24.762;2023-03-31T02:06:45;14.70;;;6.63;;
73869;SDS011;64924;42.140;24.762;2023-03-31T02:09:18;14.60;;;6.57;;
73869;SDS011;64924;42.140;24.762;2023-03-31T02:11:49;12.60;;;7.30;;
73869;SDS011;64924;42.140;24.762;2023-03-31T02:14:19;14.05;;;6.20;;
73869;SDS011;64924;42.140;24.762;2023-03-31T02:16:48;10.25;;;5.78;;
73869;SDS011;64924;42.140;24.762;2023-03-31T02:19:22;11.90;;;6.35;;
73869;SDS011;64924;42.140;24.762;2023-03-31T02:21:52;11.43;;;6.45;;
73869;SDS011;64924;42.140;24.762;2023-03-31T02:24:19;11.25;;;5.72;;
73869;SDS011;64924;42.140;24.762;2023-03-31T02:26:53;12.77;;;6.22;;
73869;SDS011;64924;42.140;24.762;2023-03-31T02:29:26;11.88;;;6.47;;
73869;SDS011;64924;42.140;24.762;2023-03-31T02:31:55;12.57;;;6.22;;
73869;SDS011;64924;42.140;24.762;2023-03-31T02:34:28;12.75;;;5.68;;
73869;SDS011;64924;42.140;24.762;2023-03-31T02:36:53;16.17;;;5.97;;
73869;SDS011;64924;42.140;24.762;2023-03-31T02:39:24;13.55;;;5.93;;
73869;SDS011;64924;42.140;24.762;2023-03-31T02:41:53;12.98;;;6.80;;
73869;SDS011;64924;42.140;24.762;2023-03-31T02:44:19;16.58;;;7.25;;
73869;SDS011;64924;42.140;24.762;2023-03-31T02:46:45;18.38;;;6.38;;
73869;SDS011;64924;42.140;24.762;2023-03-31T02:49:11;15.90;;;6.15;;
73869;SDS011;64924;42.140;24.762;2023-03-31T02:57:48;13.50;;;6.25;;
73869;SDS011;64924;42.140;24.762;2023-03-31T03:06:01;12.98;;;6.45;;
73869;SDS011;64924;42.140;24.762;2023-03-31T03:08:57;12.60;;;6.05;;
73869;SDS011;64924;42.140;24.762;2023-03-31T03:17:01;16.35;;;6.25;;
73869;SDS011;64924;42.140;24.762;2023-03-31T03:19:32;13.75;;;5.97;;
73869;SDS011;64924;42.140;24.762;2023-03-31T03:21:58;11.75;;;6.57;;
73869;SDS011;64924;42.140;24.762;2023-03-31T03:24:23;15.82;;;6.50;;
73869;SDS011;64924;42.140;24.762;2023-03-31T03:26:53;13.38;;;5.75;;
73869;SDS011;64924;42.140;24.762;2023-03-31T03:29:19;13.10;;;6.80;;
73869;SDS011;64924;42.140;24.762;2023-03-31T03:31:45;13.40;;;6.07;;
73869;SDS011;64924;42.140;24.762;2023-03-31T03:34:10;9.70;;;5.50;;
73869;SDS011;64924;42.140;24.762;2023-03-31T03:36:36;10.35;;;6.10;;
73869;SDS011;64924;42.140;24.762;2023-03-31T03:39:03;15.70;;;6.10;;
73869;SDS011;64924;42.140;24.762;2023-03-31T03:41:29;11.30;;;5.95;;
73869;SDS011;64924;42.140;24.762;2023-03-31T03:43:57;11.70;;;5.75;;
73869;SDS011;64924;42.140;24.762;2023-03-31T03:46:24;19.95;;;6.28;;
73869;SDS011;64924;42.140;24.762;2023-03-31T03:48:49;17.95;;;6.13;;
73869;SDS011;64924;42.140;24.762;2023-03-31T03:51:15;15.88;;;6.00;;
73869;SDS011;64924;42.140;24.762;2023-03-31T03:53:41;14.98;;;5.75;;
73869;SDS011;64924;42.140;24.762;2023-03-31T03:56:06;15.18;;;6.50;;
73869;SDS011;64924;42.140;24.762;2023-03-31T03:58:32;14.38;;;5.95;;
73869;SDS011;64924;42.140;24.762;2023-03-31T04:00:58;12.95;;;5.93;;
73869;SDS011;64924;42.140;24.762;2023-03-31T04:03:23;10.13;;;5.25;;
73869;SDS011;64924;42.140;24.762;2023-03-31T04:05:49;14.63;;;6.30;;
73869;SDS011;64924;42.140;24.762;2023-03-31T04:08:15;14.73;;;6.43;;
73869;SDS011;64924;42.140;24.762;2023-03-31T04:10:45;15.43;;;5.55;;
73869;SDS011;64924;42.140;24.762;2023-03-31T04:13:13;11.00;;;5.50;;
73869;SDS011;64924;42.140;24.762;2023-03-31T04:15:39;10.02;;;5.60;;
73869;SDS011;64924;42.140;24.762;2023-03-31T04:18:05;9.23;;;4.90;;
73869;SDS011;64924;42.140;24.762;2023-03-31T04:20:30;13.40;;;4.95;;
73869;SDS011;64924;42.140;24.762;2023-03-31T04:22:56;8.98;;;5.00;;
73869;SDS011;64924;42.140;24.762;2023-03-31T04:25:22;7.88;;;4.80;;
73869;SDS011;64924;42.140;24.762;2023-03-31T04:27:48;11.27;;;4.80;;
73869;SDS011;64924;42.140;24.762;2023-03-31T04:30:18;13.95;;;5.65;;
73869;SDS011;64924;42.140;24.762;2023-03-31T04:32:52;14.57;;;6.05;;
73869;SDS011;64924;42.140;24.762;2023-03-31T04:35:21;12.70;;;6.95;;
73869;SDS011;64924;42.140;24.762;2023-03-31T04:37:51;11.85;;;6.53;;
73869;SDS011;64924;42.140;24.762;2023-03-31T04:40:23;16.63;;;6.53;;
73869;SDS011;64924;42.140;24.762;2023-03-31T04:42:49;14.32;;;7.38;;
73869;SDS011;64924;42.140;24.762;2023-03-31T04:45:15;15.85;;;8.00;;
73869;SDS011;64924;42.140;24.762;2023-03-31T04:47:41;14.57;;;7.80;;
73869;SDS011;64924;42.140;24.762;2023-03-31T04:50:07;13.13;;;7.90;;
73869;SDS011;64924;42.140;24.762;2023-03-31T04:52:34;14.77;;;7.15;;
73869;SDS011;64924;42.140;24.762;2023-03-31T04:55:00;17.73;;;6.88;;
73869;SDS011;64924;42.140;24.762;2023-03-31T04:57:26;14.50;;;7.13;;
73869;SDS011;64924;42.140;24.762;2023-03-31T04:59:51;15.07;;;7.20;;
73869;SDS011;64924;42.140;24.762;2023-03-31T05:02:16;17.23;;;7.28;;
73869;SDS011;64924;42.140;24.762;2023-03-31T05:04:47;12.25;;;6.68;;
73869;SDS011;64924;42.140;24.762;2023-03-31T05:07:15;16.08;;;7.28;;
73869;SDS011;64924;42.140;24.762;2023-03-31T05:09:41;14.48;;;7.20;;
73869;SDS011;64924;42.140;24.762;2023-03-31T05:12:07;20.27;;;7.80;;
73869;SDS011;64924;42.140;24.762;2023-03-31T05:14:32;15.52;;;6.93;;
73869;SDS011;64924;42.140;24.762;2023-03-31T05:16:58;15.07;;;7.15;;
73869;SDS011;64924;42.140;24.762;2023-03-31T05:19:23;14.35;;;7.25;;
73869;SDS011;64924;42.140;24.762;2023-03-31T05:21:49;14.48;;;7.20;;
73869;SDS011;64924;42.140;24.762;2023-03-31T05:24:14;18.27;;;8.25;;
73869;SDS011;64924;42.140;24.762;2023-03-31T05:26:40;19.48;;;7.38;;
73869;SDS011;64924;42.140;24.762;2023-03-31T05:29:08;22.67;;;8.15;;
73869;SDS011;64924;42.140;24.762;2023-03-31T05:31:33;16.77;;;6.38;;
73869;SDS011;64924;42.140;24.762;2023-03-31T05:33:59;11.45;;;5.40;;
73869;SDS011;64924;42.140;24.762;2023-03-31T05:36:24;12.88;;;5.68;;
73869;SDS011;64924;42.140;24.762;2023-03-31T05:38:51;17.35;;;7.43;;
73869;SDS011;64924;42.140;24.762;2023-03-31T05:41:16;9.63;;;6.43;;
73869;SDS011;64924;42.140;24.762;2023-03-31T05:43:42;16.63;;;7.72;;
73869;SDS011;64924;42.140;24.762;2023-03-31T05:46:07;18.65;;;7.22;;
73869;SDS011;64924;42.140;24.762;2023-03-31T05:48:33;13.00;;;6.22;;
73869;SDS011;64924;42.140;24.762;2023-03-31T05:51:01;17.30;;;7.75;;
73869;SDS011;64924;42.140;24.762;2023-03-31T05:53:27;18.40;;;6.82;;
73869;SDS011;64924;42.140;24.762;2023-03-31T05:56:00;17.35;;;7.15;;
73869;SDS011;64924;42.140;24.762;2023-03-31T05:58:27;15.10;;;7.75;;
73869;SDS011;64924;42.140;24.762;2023-03-31T06:01:10;17.90;;;8.32;;
73869;SDS011;64924;42.140;24.762;2023-03-31T06:03:38;15.75;;;7.90;;
73869;SDS011;64924;42.140;24.762;2023-03-31T06:06:08;20.92;;;7.93;;
73869;SDS011;64924;42.140;24.762;2023-03-31T06:08:34;30.70;;;13.48;;
73869;SDS011;64924;42.140;24.762;2023-03-31T06:11:04;28.05;;;11.63;;
73869;SDS011;64924;42.140;24.762;2023-03-31T06:13:35;25.30;;;11.35;;
73869;SDS011;64924;42.140;24.762;2023-03-31T06:16:02;25.33;;;10.15;;
73869;SDS011;64924;42.140;24.762;2023-03-31T06:18:29;28.50;;;8.40;;
73869;SDS011;64924;42.140;24.762;2023-03-31T06:20:55;16.75;;;8.90;;
73869;SDS011;64924;42.140;24.762;2023-03-31T06:23:22;17.85;;;7.80;;
73869;SDS011;64924;42.140;24.762;2023-03-31T06:25:48;22.65;;;8.63;;
73869;SDS011;64924;42.140;24.762;2023-03-31T06:28:14;18.73;;;8.38;;
73869;SDS011;64924;42.140;24.762;2023-03-31T06:30:39;18.50;;;8.32;;
73869;SDS011;64924;42.140;24.762;2023-03-31T06:33:05;21.67;;;9.05;;
73869;SDS011;64924;42.140;24.762;2023-03-31T06:35:31;19.30;;;9.10;;
73869;SDS011;64924;42.140;24.762;2023-03-31T06:37:57;20.38;;;10.25;;
73869;SDS011;64924;42.140;24.762;2023-03-31T06:40:22;24.00;;;8.10;;
73869;SDS011;64924;42.140;24.762;2023-03-31T06:42:48;17.88;;;8.13;;
73869;SDS011;64924;42.140;24.762;2023-03-31T06:45:13;26.38;;;9.60;;
73869;SDS011;64924;42.140;24.762;2023-03-31T06:47:39;25.50;;;9.40;;
73869;SDS011;64924;42.140;24.762;2023-03-31T06:50:06;21.05;;;8.40;;
73869;SDS011;64924;42.140;24.762;2023-03-31T06:52:33;26.83;;;9.40;;
73869;SDS011;64924;42.140;24.762;2023-03-31T06:54:58;20.35;;;9.00;;
73869;SDS011;64924;42.140;24.762;2023-03-31T06:57:24;18.20;;;8.55;;
73869;SDS011;64924;42.140;24.762;2023-03-31T06:59:51;18.83;;;9.50;;
73869;SDS011;64924;42.140;24.762;2023-03-31T07:02:16;26.33;;;11.13;;
73869;SDS011;64924;42.140;24.762;2023-03-31T07:04:42;21.38;;;8.23;;
73869;SDS011;64924;42.140;24.762;2023-03-31T07:07:07;24.50;;;8.48;;
73869;SDS011;64924;42.140;24.762;2023-03-31T07:09:33;18.77;;;8.88;;
73869;SDS011;64924;42.140;24.762;2023-03-31T07:11:58;21.30;;;9.50;;
73869;SDS011;64924;42.140;24.762;2023-03-31T07:14:24;16.65;;;9.32;;
73869;SDS011;64924;42.140;24.762;2023-03-31T07:16:49;20.60;;;9.15;;
73869;SDS011;64924;42.140;24.762;2023-03-31T07:19:15;21.65;;;9.57;;
73869;SDS011;64924;42.140;24.762;2023-03-31T07:21:41;22.42;;;9.95;;
73869;SDS011;64924;42.140;24.762;2023-03-31T07:24:07;25.95;;;10.40;;
73869;SDS011;64924;42.140;24.762;2023-03-31T07:26:32;28.27;;;12.50;;
73869;SDS011;64924;42.140;24.762;2023-03-31T07:28:58;23.10;;;12.23;;
73869;SDS011;64924;42.140;24.762;2023-03-31T07:31:24;31.73;;;15.07;;
73869;SDS011;64924;42.140;24.762;2023-03-31T07:33:50;25.92;;;14.70;;
73869;SDS011;64924;42.140;24.762;2023-03-31T07:36:15;29.40;;;14.35;;
73869;SDS011;64924;42.140;24.762;2023-03-31T07:38:41;32.33;;;14.38;;
73869;SDS011;64924;42.140;24.762;2023-03-31T07:41:09;27.77;;;11.35;;
73869;SDS011;64924;42.140;24.762;2023-03-31T07:43:35;19.42;;;10.55;;
73869;SDS011;64924;42.140;24.762;2023-03-31T07:46:01;25.77;;;11.52;;
73869;SDS011;64924;42.140;24.762;2023-03-31T07:48:27;21.98;;;10.13;;
73869;SDS011;64924;42.140;24.762;2023-03-31T07:50:53;21.48;;;10.40;;
73869;SDS011;64924;42.140;24.762;2023-03-31T07:53:18;20.20;;;9.55;;
73869;SDS011;64924;42.140;24.762;2023-03-31T07:55:45;21.38;;;10.82;;
73869;SDS011;64924;42.140;24.762;2023-03-31T07:58:12;24.77;;;10.05;;
73869;SDS011;64924;42.140;24.762;2023-03-31T08:00:37;22.33;;;9.57;;
73869;SDS011;64924;42.140;24.762;2023-03-31T08:03:03;20.13;;;10.10;;
73869;SDS011;64924;42.140;24.762;2023-03-31T08:05:28;18.75;;;9.48;;
73869;SDS011;64924;42.140;24.762;2023-03-31T08:07:54;19.65;;;10.38;;
73869;SDS011;64924;42.140;24.762;2023-03-31T08:10:21;22.13;;;10.75;;
73869;SDS011;64924;42.140;24.762;2023-03-31T08:12:49;22.42;;;11.50;;
73869;SDS011;64924;42.140;24.762;2023-03-31T08:15:15;21.52;;;11.52;;
73869;SDS011;64924;42.140;24.762;2023-03-31T08:17:41;28.00;;;13.48;;
73869;SDS011;64924;42.140;24.762;2023-03-31T08:20:06;26.85;;;11.77;;
73869;SDS011;64924;42.140;24.762;2023-03-31T08:22:34;26.15;;;13.60;;
73869;SDS011;64924;42.140;24.762;2023-03-31T08:25:05;21.98;;;11.80;;
73869;SDS011;64924;42.140;24.762;2023-03-31T08:27:36;29.15;;;11.70;;
73869;SDS011;64924;42.140;24.762;2023-03-31T08:30:03;22.73;;;10.98;;
73869;SDS011;64924;42.140;24.762;2023-03-31T08:32:31;36.03;;;13.65;;
73869;SDS011;64924;42.140;24.762;2023-03-31T08:34:58;22.35;;;10.98;;
73869;SDS011;64924;42.140;24.762;2023-03-31T08:37:23;26.98;;;11.20;;
73869;SDS011;64924;42.140;24.762;2023-03-31T08:39:50;26.58;;;11.57;;
73869;SDS011;64924;42.140;24.762;2023-03-31T08:42:19;22.83;;;11.60;;
73869;SDS011;64924;42.140;24.762;2023-03-31T08:45:22;37.45;;;12.93;;
73869;SDS011;64924;42.140;24.762;2023-03-31T08:47:57;28.92;;;12.52;;
73869;SDS011;64924;42.140;24.762;2023-03-31T08:50:27;25.60;;;13.48;;
73869;SDS011;64924;42.140;24.762;2023-03-31T08:53:19;24.63;;;12.02;;
73869;SDS011;64924;42.140;24.762;2023-03-31T08:56:01;27.23;;;12.27;;
73869;SDS011;64924;42.140;24.762;2023-03-31T09:06:48;18.75;;;11.02;;
73869;SDS011;64924;42.140;24.762;2023-03-31T09:11:59;21.95;;;11.05;;
73869;SDS011;64924;42.140;24.762;2023-03-31T09:14:43;19.48;;;10.10;;
73869;SDS011;64924;42.140;24.762;2023-03-31T09:17:25;24.45;;;10.35;;
73869;SDS011;64924;42.140;24.762;2023-03-31T09:19:55;19.77;;;9.18;;
73869;SDS011;64924;42.140;24.762;2023-03-31T09:22:31;17.58;;;10.02;;
73869;SDS011;64924;42.140;24.762;2023-03-31T09:25:10;19.55;;;9.40;;
73869;SDS011;64924;42.140;24.762;2023-03-31T09:27:41;23.42;;;9.93;;
73869;SDS011;64924;42.140;24.762;2023-03-31T09:32:35;18.52;;;9.40;;
73869;SDS011;64924;42.140;24.762;2023-03-31T09:35:19;30.85;;;10.10;;
73869;SDS011;64924;42.140;24.762;2023-03-31T09:37:47;21.08;;;8.98;;
73869;SDS011;64924;42.140;24.762;2023-03-31T09:40:18;15.32;;;7.72;;
73869;SDS011;64924;42.140;24.762;2023-03-31T09:42:50;21.40;;;8.18;;
73869;SDS011;64924;42.140;24.762;2023-03-31T09:45:22;14.10;;;5.65;;
73869;SDS011;64924;42.140;24.762;2023-03-31T09:47:52;5.60;;;3.50;;
73869;SDS011;64924;42.140;24.762;2023-03-31T09:50:19;8.65;;;3.03;;
73869;SDS011;64924;42.140;24.762;2023-03-31T09:52:50;5.95;;;2.85;;
73869;SDS011;64924;42.140;24.762;2023-03-31T09:55:19;10.48;;;3.53;;
73869;SDS011;64924;42.140;24.762;2023-03-31T09:57:47;10.80;;;5.70;;
73869;SDS011;64924;42.140;24.762;2023-03-31T10:00:20;11.27;;;3.63;;
73869;SDS011;64924;42.140;24.762;2023-03-31T10:05:38;7.88;;;3.45;;
73869;SDS011;64924;42.140;24.762;2023-03-31T10:08:13;9.13;;;3.25;;
73869;SDS011;64924;42.140;24.762;2023-03-31T10:10:47;9.82;;;3.13;;
73869;SDS011;64924;42.140;24.762;2023-03-31T10:13:20;8.93;;;3.40;;
73869;SDS011;64924;42.140;24.762;2023-03-31T10:15:52;7.20;;;3.53;;
73869;SDS011;64924;42.140;24.762;2023-03-31T10:21:03;7.22;;;3.70;;
73869;SDS011;64924;42.140;24.762;2023-03-31T10:23:32;10.02;;;3.92;;
73869;SDS011;64924;42.140;24.762;2023-03-31T10:25:59;7.88;;;3.65;;
73869;SDS011;64924;42.140;24.762;2023-03-31T10:28:26;10.75;;;5.05;;
73869;SDS011;64924;42.140;24.762;2023-03-31T10:30:57;7.97;;;4.20;;
73869;SDS011;64924;42.140;24.762;2023-03-31T10:33:29;10.20;;;4.50;;
73869;SDS011;64924;42.140;24.762;2023-03-31T10:35:59;8.35;;;4.05;;
73869;SDS011;64924;42.140;24.762;2023-03-31T10:38:36;9.23;;;4.72;;
73869;SDS011;64924;42.140;24.762;2023-03-31T10:41:04;10.98;;;4.70;;
73869;SDS011;64924;42.140;24.762;2023-03-31T10:46:07;8.18;;;4.10;;
73869;SDS011;64924;42.140;24.762;2023-03-31T10:48:37;5.90;;;3.85;;
73869;SDS011;64924;42.140;24.762;2023-03-31T10:53:51;9.43;;;3.92;;
73869;SDS011;64924;42.140;24.762;2023-03-31T10:56:40;13.23;;;5.35;;
73869;SDS011;64924;42.140;24.762;2023-03-31T11:02:21;10.27;;;5.10;;
73869;SDS011;64924;42.140;24.762;2023-03-31T11:16:22;9.23;;;4.47;;
73869;SDS011;64924;42.140;24.762;2023-03-31T11:29:29;15.30;;;6.30;;
73869;SDS011;64924;42.140;24.762;2023-03-31T11:41:01;9.15;;;4.50;;
73869;SDS011;64924;42.140;24.762;2023-03-31T11:43:35;9.07;;;4.82;;
73869;SDS011;64924;42.140;24.762;2023-03-31T11:48:56;7.80;;;4.35;;
73869;SDS011;64924;42.140;24.762;2023-03-31T11:51:27;7.45;;;4.25;;
73869;SDS011;64924;42.140;24.762;2023-03-31T11:53:57;12.75;;;4.65;;
73869;SDS011;64924;42.140;24.762;2023-03-31T11:56:29;6.75;;;3.80;;
73869;SDS011;64924;42.140;24.762;2023-03-31T11:59:00;6.93;;;3.25;;
73869;SDS011;64924;42.140;24.762;2023-03-31T12:01:28;7.82;;;4.50;;
73869;SDS011;64924;42.140;24.762;2023-03-31T12:06:42;9.43;;;4.93;;
73869;SDS011;64924;42.140;24.762;2023-03-31T12:09:22;10.02;;;4.28;;
73869;SDS011;64924;42.140;24.762;2023-03-31T12:17:16;12.18;;;6.70;;
73869;SDS011;64924;42.140;24.762;2023-03-31T12:19:48;9.65;;;4.68;;
73869;SDS011;64924;42.140;24.762;2023-03-31T12:25:03;5.78;;;3.28;;
73869;SDS011;64924;42.140;24.762;2023-03-31T12:32:47;7.20;;;3.80;;
73869;SDS011;64924;42.140;24.762;2023-03-31T12:35:21;11.55;;;3.42;;
73869;SDS011;64924;42.140;24.762;2023-03-31T12:41:29;19.85;;;3.38;;
73869;SDS011;64924;42.140;24.762;2023-03-31T12:57:52;10.13;;;2.60;;
73869;SDS011;64924;42.140;24.762;2023-03-31T13:01:03;8.77;;;3.65;;
73869;SDS011;64924;42.140;24.762;2023-03-31T13:06:00;4.63;;;2.67;;
73869;SDS011;64924;42.140;24.762;2023-03-31T13:11:19;6.05;;;3.22;;
73869;SDS011;64924;42.140;24.762;2023-03-31T13:16:42;11.80;;;2.60;;
73869;SDS011;64924;42.140;24.762;2023-03-31T13:19:09;7.80;;;2.80;;
73869;SDS011;64924;42.140;24.762;2023-03-31T13:21:55;5.22;;;2.63;;
73869;SDS011;64924;42.140;24.762;2023-03-31T13:24:22;5.72;;;2.38;;
73869;SDS011;64924;42.140;24.762;2023-03-31T13:26:50;8.85;;;2.63;;
73869;SDS011;64924;42.140;24.762;2023-03-31T13:39:40;6.93;;;2.13;;
73869;SDS011;64924;42.140;24.762;2023-03-31T13:45:06;9.02;;;2.15;;
73869;SDS011;64924;42.140;24.762;2023-03-31T13:48:08;5.80;;;2.42;;
73869;SDS011;64924;42.140;24.762;2023-03-31T14:01:55;9.00;;;2.90;;
73869;SDS011;64924;42.140;24.762;2023-03-31T14:07:45;6.93;;;2.45;;
73869;SDS011;64924;42.140;24.762;2023-03-31T14:13:12;10.30;;;3.78;;
73869;SDS011;64924;42.140;24.762;2023-03-31T14:15:46;7.20;;;2.80;;
73869;SDS011;64924;42.140;24.762;2023-03-31T14:18:17;10.00;;;3.00;;
73869;SDS011;64924;42.140;24.762;2023-03-31T14:37:04;6.47;;;2.55;;
73869;SDS011;64924;42.140;24.762;2023-03-31T14:39:35;6.00;;;2.30;;
73869;SDS011;64924;42.140;24.762;2023-03-31T14:42:05;9.50;;;3.13;;
73869;SDS011;64924;42.140;24.762;2023-03-31T14:44:37;7.28;;;2.80;;
73869;SDS011;64924;42.140;24.762;2023-03-31T14:47:04;8.20;;;2.80;;
73869;SDS011;64924;42.140;24.762;2023-03-31T14:49:35;5.90;;;2.65;;
73869;SDS011;64924;42.140;24.762;2023-03-31T14:52:19;6.40;;;2.67;;
73869;SDS011;64924;42.140;24.762;2023-03-31T14:54:48;7.68;;;3.28;;
73869;SDS011;64924;42.140;24.762;2023-03-31T14:57:17;4.70;;;2.50;;
73869;SDS011;64924;42.140;24.762;2023-03-31T14:59:54;6.55;;;2.67;;
73869;SDS011;64924;42.140;24.762;2023-03-31T15:03:02;11.10;;;3.05;;
73869;SDS011;64924;42.140;24.762;2023-03-31T15:05:13;7.57;;;2.60;;
73869;SDS011;64924;42.140;24.762;2023-03-31T15:08:11;8.52;;;2.47;;
73869;SDS011;64924;42.140;24.762;2023-03-31T15:10:41;7.28;;;2.80;;
73869;SDS011;64924;42.140;24.762;2023-03-31T15:13:10;6.57;;;2.72;;
73869;SDS011;64924;42.140;24.762;2023-03-31T15:15:42;6.15;;;2.60;;
73869;SDS011;64924;42.140;24.762;2023-03-31T15:18:16;6.03;;;2.65;;
73869;SDS011;64924;42.140;24.762;2023-03-31T15:20:43;6.82;;;2.40;;
73869;SDS011;64924;42.140;24.762;2023-03-31T15:25:59;6.13;;;2.55;;
73869;SDS011;64924;42.140;24.762;2023-03-31T15:28:33;8.00;;;3.47;;
73869;SDS011;64924;42.140;24.762;2023-03-31T15:31:05;10.40;;;4.40;;
73869;SDS011;64924;42.140;24.762;2023-03-31T15:33:34;9.05;;;2.80;;
73869;SDS011;64924;42.140;24.762;2023-03-31T15:36:05;9.57;;;3.28;;
73869;SDS011;64924;42.140;24.762;2023-03-31T15:38:37;9.48;;;2.83;;
73869;SDS011;64924;42.140;24.762;2023-03-31T15:41:03;9.63;;;5.35;;
73869;SDS011;64924;42.140;24.762;2023-03-31T15:43:49;7.10;;;3.60;;
73869;SDS011;64924;42.140;24.762;2023-03-31T15:49:03;11.73;;;5.53;;
73869;SDS011;64924;42.140;24.762;2023-03-31T15:51:42;13.47;;;6.47;;
73869;SDS011;64924;42.140;24.762;2023-03-31T15:56:58;25.50;;;14.48;;
73869;SDS011;64924;42.140;24.762;2023-03-31T15:59:26;31.30;;;18.40;;
73869;SDS011;64924;42.140;24.762;2023-03-31T16:01:53;23.02;;;14.18;;
73869;SDS011;64924;42.140;24.762;2023-03-31T16:04:21;15.38;;;7.22;;
73869;SDS011;64924;42.140;24.762;2023-03-31T16:06:49;11.43;;;5.38;;
73869;SDS011;64924;42.140;24.762;2023-03-31T16:09:20;8.85;;;4.30;;
73869;SDS011;64924;42.140;24.762;2023-03-31T16:11:59;13.77;;;4.03;;
73869;SDS011;64924;42.140;24.762;2023-03-31T16:14:31;6.20;;;3.58;;
73869;SDS011;64924;42.140;24.762;2023-03-31T16:17:10;10.20;;;4.05;;
73869;SDS011;64924;42.140;24.762;2023-03-31T16:19:53;8.13;;;4.43;;
73869;SDS011;64924;42.140;24.762;2023-03-31T16:22:23;13.70;;;4.20;;
73869;SDS011;64924;42.140;24.762;2023-03-31T16:24:56;8.90;;;4.45;;
73869;SDS011;64924;42.140;24.762;2023-03-31T16:27:21;11.18;;;5.10;;
73869;SDS011;64924;42.140;24.762;2023-03-31T16:29:47;9.32;;;4.97;;
73869;SDS011;64924;42.140;24.762;2023-03-31T16:32:17;10.60;;;5.07;;
73869;SDS011;64924;42.140;24.762;2023-03-31T16:35:04;11.30;;;5.22;;
73869;SDS011;64924;42.140;24.762;2023-03-31T16:37:30;11.23;;;4.72;;
73869;SDS011;64924;42.140;24.762;2023-03-31T16:39:56;7.55;;;3.92;;
73869;SDS011;64924;42.140;24.762;2023-03-31T16:42:22;11.55;;;4.10;;
73869;SDS011;64924;42.140;24.762;2023-03-31T16:44:47;13.20;;;4.65;;
73869;SDS011;64924;42.140;24.762;2023-03-31T16:47:13;9.77;;;4.82;;
73869;SDS011;64924;42.140;24.762;2023-03-31T16:49:39;13.02;;;5.20;;
73869;SDS011;64924;42.140;24.762;2023-03-31T16:52:05;9.25;;;4.30;;
73869;SDS011;64924;42.140;24.762;2023-03-31T16:54:32;9.95;;;4.45;;
73869;SDS011;64924;42.140;24.762;2023-03-31T16:56:58;10.52;;;5.30;;
73869;SDS011;64924;42.140;24.762;2023-03-31T16:59:24;13.52;;;5.60;;
73869;SDS011;64924;42.140;24.762;2023-03-31T17:01:49;11.95;;;5.65;;
73869;SDS011;64924;42.140;24.762;2023-03-31T17:04:16;17.35;;;7.00;;
73869;SDS011;64924;42.140;24.762;2023-03-31T17:06:41;18.80;;;7.70;;
73869;SDS011;64924;42.140;24.762;2023-03-31T17:09:07;19.25;;;7.28;;
73869;SDS011;64924;42.140;24.762;2023-03-31T17:11:33;15.15;;;6.90;;
73869;SDS011;64924;42.140;24.762;2023-03-31T17:14:00;15.55;;;7.53;;
73869;SDS011;64924;42.140;24.762;2023-03-31T17:16:26;22.50;;;8.23;;
73869;SDS011;64924;42.140;24.762;2023-03-31T17:18:52;17.60;;;7.35;;
73869;SDS011;64924;42.140;24.762;2023-03-31T17:21:17;18.10;;;7.03;;
73869;SDS011;64924;42.140;24.762;2023-03-31T17:23:43;17.80;;;6.38;;
73869;SDS011;64924;42.140;24.762;2023-03-31T17:26:10;17.50;;;5.57;;
73869;SDS011;64924;42.140;24.762;2023-03-31T17:28:37;13.68;;;5.85;;
73869;SDS011;64924;42.140;24.762;2023-03-31T17:31:10;12.98;;;5.70;;
73869;SDS011;64924;42.140;24.762;2023-03-31T17:33:39;14.50;;;5.95;;
73869;SDS011;64924;42.140;24.762;2023-03-31T17:36:05;14.07;;;6.60;;
73869;SDS011;64924;42.140;24.762;2023-03-31T17:38:31;14.63;;;6.90;;
73869;SDS011;64924;42.140;24.762;2023-03-31T17:41:03;20.63;;;7.32;;
73869;SDS011;64924;42.140;24.762;2023-03-31T17:43:30;11.85;;;6.40;;
73869;SDS011;64924;42.140;24.762;2023-03-31T17:46:03;19.35;;;7.35;;
73869;SDS011;64924;42.140;24.762;2023-03-31T17:48:31;18.23;;;7.30;;
73869;SDS011;64924;42.140;24.762;2023-03-31T17:51:02;15.50;;;6.80;;
73869;SDS011;64924;42.140;24.762;2023-03-31T17:53:38;26.25;;;11.10;;
73869;SDS011;64924;42.140;24.762;2023-03-31T17:56:04;41.30;;;20.27;;
73869;SDS011;64924;42.140;24.762;2023-03-31T17:58:30;40.30;;;18.17;;
73869;SDS011;64924;42.140;24.762;2023-03-31T18:00:57;31.45;;;15.52;;